Kenyon, Minnesota
Current Conditions -  °F | °C
As of 9:14 PM on Monday 26 Jan 2015 (Local Time) from KSYN Reporting Station
Overcast Overcast  
Wind Chill: 32°   Ceiling: 3000
Heat Index: 38°   Visibility: 10mi
Dew Point: 31°   Wind: 8mph
Humidity: 75%   Direction: 330°NNW
Pressure: 29.9"   Gusts: 16mph
Location:  44.27°N, 92.99°W
Report Text: KSYN 270314Z AUTO 33007G14KT 10SM OVC030 03/M01 A2990 RMK AO2 T00341006
Loading
Personal Weather Stations






























Interactive Weather Map New forecast layout! Learn more

10-Day Weather Forecast

Advertisements
Track Severe Weather on mobile